Time;durP1;ratioP1;P1;durP2;ratioP2;P2;SDS_P1;SDS_P2;PMS_P1;PMS_P2;Temp;Humidity;BMP_temperature;BMP_pressure;BME280_temperature;BME280_humidity;BME280_pressure;Samples;Min_cycle;Max_cycle;Signal;HPM_P1;HPM_P2
2023/09/18 00:00:42;;;;;;;6.15;3.00;;;;;;;-145.68;57.46;72732.34;10448817;28;20230;-74
2023/09/18 00:05:43;;;;;;;3.38;3.08;;;;;;;-145.68;56.71;72702.34;10444341;28;20199;-74
2023/09/18 00:10:48;;;;;;;3.25;2.90;;;;;;;-145.68;56.61;72700.34;10448192;28;20184;-74
2023/09/18 00:15:48;;;;;;;4.00;3.10;;;;;;;-145.68;56.44;72682.38;10430471;28;20619;-74
2023/09/18 00:20:49;;;;;;;4.15;3.25;;;;;;;-145.68;55.76;72654.41;10447745;28;20223;-74
2023/09/18 00:25:49;;;;;;;3.47;3.17;;;;;;;-145.68;55.33;72628.41;10430042;28;20547;-73
2023/09/18 00:30:50;;;;;;;5.07;3.50;;;;;;;-145.68;55.77;72658.38;10447815;28;20279;-73
2023/09/18 00:35:51;;;;;;;4.10;3.40;;;;;;;-145.68;55.16;72628.41;10429172;28;20192;-74
2023/09/18 00:40:51;;;;;;;5.97;3.38;;;;;;;-145.68;55.62;72644.41;10412863;28;20250;-73
2023/09/18 00:45:52;;;;;;;4.32;3.03;;;;;;;-145.68;56.53;72672.38;10429143;28;20569;-74
2023/09/18 00:50:53;;;;;;;5.45;3.35;;;;;;;-145.68;57.95;72716.34;10412397;28;20309;-73
2023/09/18 00:55:56;;;;;;;4.28;3.60;;;;;;;-145.68;58.25;72724.34;10411914;28;20216;-73
2023/09/18 01:00:57;;;;;;;4.03;3.63;;;;;;;-145.68;58.88;72738.31;10411241;28;20696;-73
2023/09/18 01:05:57;;;;;;;4.03;3.20;;;;;;;-145.68;59.69;72754.31;10428416;28;20205;-73
2023/09/18 01:11:05;;;;;;;4.05;3.35;;;;;;;-145.68;60.20;72758.31;10446699;28;20184;-73
2023/09/18 01:16:10;;;;;;;5.28;3.33;;;;;;;-145.68;60.28;72758.31;10411297;28;20188;-73
2023/09/18 01:21:10;;;;;;;4.25;3.70;;;;;;;-145.68;59.53;72720.34;10411931;28;20562;-73
2023/09/18 01:26:11;;;;;;;3.55;3.25;;;;;;;-145.68;59.52;72728.34;10428043;28;20204;-74
2023/09/18 01:31:11;;;;;;;4.63;3.50;;;;;;;-145.68;59.29;72716.34;10427983;28;20180;-73
2023/09/18 01:36:12;;;;;;;3.55;3.08;;;;;;;-145.68;59.09;72738.31;10445868;28;20192;-74
2023/09/18 01:41:13;;;;;;;3.20;2.90;;;;;;;-145.68;60.40;72768.31;10410885;28;20294;-73
2023/09/18 01:46:14;;;;;;;4.28;3.10;;;;;;;-145.68;60.17;72768.31;10411045;28;20184;-73
2023/09/18 01:51:15;;;;;;;3.58;3.00;;;;;;;-145.68;60.08;72768.31;10402884;28;20604;-73
2023/09/18 01:56:16;;;;;;;3.22;2.92;;;;;;;-145.68;61.16;72800.28;10404462;28;20224;-73
2023/09/18 02:01:16;;;;;;;5.35;3.40;;;;;;;-145.68;62.41;72838.25;10402630;28;20219;-74
2023/09/18 02:06:17;;;;;;;5.00;3.10;;;;;;;-145.68;60.48;72788.28;10402831;28;20280;-73
2023/09/18 02:11:17;;;;;;;3.30;2.83;;;;;;;-145.68;62.59;72850.25;10410277;28;20208;-73
2023/09/18 02:16:19;;;;;;;4.55;3.00;;;;;;;-145.68;64.87;72904.19;10394141;28;20707;-73
2023/09/18 02:21:20;;;;;;;3.38;3.05;;;;;;;-145.68;66.08;72914.19;10410429;28;20326;-73
2023/09/18 02:26:21;;;;;;;10.65;3.35;;;;;;;-145.68;67.90;72954.16;10409740;28;20607;-73
2023/09/18 02:31:22;;;;;;;4.35;3.38;;;;;;;-145.68;70.21;72984.13;10393500;28;20189;-74
2023/09/18 02:36:23;;;;;;;3.67;2.95;;;;;;;-145.68;68.62;72904.19;10393034;28;20653;-73
2023/09/18 02:41:23;;;;;;;4.60;3.10;;;;;;;-145.68;65.99;72844.25;10393493;28;20212;-73
2023/09/18 02:46:24;;;;;;;5.80;2.90;;;;;;;-145.68;63.70;72738.31;10409996;28;20608;-74
2023/09/18 02:51:24;;;;;;;3.55;3.25;;;;;;;-145.68;61.32;72678.38;10409145;28;20708;-74
2023/09/18 02:56:24;;;;;;;4.45;3.25;;;;;;;-145.68;60.55;72660.38;10408847;28;20661;-73
2023/09/18 03:01:25;;;;;;;3.70;3.13;;;;;;;-145.68;60.48;72660.38;10408264;28;20707;-74
2023/09/18 03:06:27;;;;;;;4.50;3.47;;;;;;;-145.68;61.18;72690.38;10408423;28;20688;-73
2023/09/18 03:11:28;;;;;;;4.32;3.13;;;;;;;-145.68;60.68;72670.38;10407217;28;20195;-74
2023/09/18 03:16:32;;;;;;;4.50;3.67;;;;;;;-145.68;61.40;72692.38;10390723;28;20657;-73
2023/09/18 03:21:35;;;;;;;4.07;3.17;;;;;;;-145.68;62.08;72706.34;10406433;28;20619;-73
2023/09/18 03:26:35;;;;;;;3.78;3.30;;;;;;;-145.68;63.36;72738.31;10407736;28;20197;-74
2023/09/18 03:31:37;;;;;;;5.60;3.55;;;;;;;-145.68;63.98;72740.31;10390424;28;20588;-73
2023/09/18 03:36:39;;;;;;;3.80;3.38;;;;;;;-145.68;66.23;72788.28;10406478;28;20188;-73
2023/09/18 03:41:39;;;;;;;7.85;3.47;;;;;;;-145.68;68.08;72830.25;10406124;28;20221;-73
2023/09/18 03:46:40;;;;;;;4.22;3.67;;;;;;;-145.68;69.88;72856.22;10407834;28;20220;-73
2023/09/18 03:51:41;;;;;;;4.40;3.75;;;;;;;-145.68;70.39;72848.25;10433068;28;20180;-73
2023/09/18 03:56:41;;;;;;;5.78;3.80;;;;;;;-145.68;72.61;72860.22;10448620;28;20183;-74
2023/09/18 04:01:41;;;;;;;11.45;4.20;;;;;;;-145.68;73.12;72822.25;10430829;28;20672;-73
2023/09/18 04:06:43;;;;;;;5.18;4.57;;;;;;;-145.68;71.34;72778.28;10448108;28;20184;-73
2023/09/18 04:11:44;;;;;;;6.85;4.25;;;;;;;-145.68;72.33;72808.28;10430691;28;20180;-73
2023/09/18 04:16:44;;;;;;;4.57;3.67;;;;;;;-145.68;75.93;72858.22;10430184;28;20713;-73
2023/09/18 04:21:44;;;;;;;4.90;3.80;;;;;;;-145.68;78.06;72914.19;10448580;28;20216;-74
2023/09/18 04:26:45;;;;;;;5.28;4.65;;;;;;;-145.68;83.87;72990.13;10428528;28;20531;-74
2023/09/18 04:31:46;;;;;;;5.75;4.90;;;;;;;-145.68;92.66;73018.13;10429701;28;20183;-74
2023/09/18 04:36:48;;;;;;;5.93;4.85;;;;;;;-145.68;98.90;73048.09;10429591;28;20616;-74
2023/09/18 04:41:49;;;;;;;5.63;4.90;;;;;;;-145.68;100.00;73068.06;10412918;28;20299;-74
2023/09/18 04:46:50;;;;;;;4.82;4.32;;;;;;;-145.68;100.00;73096.06;10429020;28;20220;-74
2023/09/18 04:51:50;;;;;;;5.75;5.05;;;;;;;-145.68;100.00;73094.06;10429326;28;20194;-73
2023/09/18 04:56:51;;;;;;;6.55;5.85;;;;;;;-145.68;100.00;73132.03;10428112;28;20216;-74
2023/09/18 05:01:51;;;;;;;6.18;5.57;;;;;;;-145.68;100.00;73122.03;10411016;28;20219;-74
2023/09/18 05:06:52;;;;;;;7.15;5.40;;;;;;;-145.68;100.00;73112.03;10429268;28;20203;-73
2023/09/18 05:11:52;;;;;;;7.47;5.00;;;;;;;-145.68;100.00;73128.03;10429041;28;20217;-73
2023/09/18 05:16:52;;;;;;;7.45;5.50;;;;;;;-145.68;100.00;73126.03;10447137;28;20639;-73
2023/09/18 05:21:53;;;;;;;6.07;5.47;;;;;;;-145.68;100.00;73122.03;10428867;28;20765;-73
2023/09/18 05:26:53;;;;;;;6.47;5.85;;;;;;;-145.68;100.00;73106.06;10446235;28;20192;-73
2023/09/18 05:31:54;;;;;;;7.53;5.97;;;;;;;-145.68;100.00;73122.03;10446788;28;20188;-73
2023/09/18 05:36:54;;;;;;;6.18;5.57;;;;;;;-145.68;100.00;73106.06;10427895;28;20553;-73
2023/09/18 05:41:54;;;;;;;8.38;5.85;;;;;;;-145.68;100.00;73094.06;10429636;28;20277;-74
2023/09/18 05:46:55;;;;;;;7.35;6.45;;;;;;;-145.68;100.00;73050.09;10454537;28;20231;-74
2023/09/18 05:51:55;;;;;;;8.82;5.82;;;;;;;-145.68;100.00;73008.13;10436548;28;20196;-73
2023/09/18 05:56:55;;;;;;;6.63;5.60;;;;;;;-145.68;100.00;72960.16;10454582;28;20692;-73
2023/09/18 06:01:56;;;;;;;6.50;5.80;;;;;;;-145.68;100.00;72926.19;10453861;28;20226;-74
2023/09/18 06:06:57;;;;;;;12.90;6.72;;;;;;;-145.68;100.00;72848.25;10453609;28;20188;-74
2023/09/18 06:11:58;;;;;;;9.57;6.18;;;;;;;-145.68;100.00;72722.34;10454146;28;20214;-74
2023/09/18 06:16:58;;;;;;;14.65;8.75;;;;;;;-145.68;89.68;72592.44;10453956;28;20254;-74
2023/09/18 06:21:59;;;;;;;11.75;8.13;;;;;;;-145.68;78.63;72502.53;10453236;28;20224;-74
2023/09/18 06:26:59;;;;;;;6.15;4.47;;;;;;;-145.68;70.44;72410.59;10451480;28;20644;-74
2023/09/18 06:32:00;;;;;;;6.85;5.50;;;;;;;-145.68;68.33;72314.69;10450251;28;20191;-74
2023/09/18 06:37:00;;;;;;;16.55;4.80;;;;;;;-145.68;61.51;72122.88;10417627;28;20640;-73
2023/09/18 06:42:01;;;;;;;7.82;3.95;;;;;;;-145.68;58.82;72094.88;10452310;28;20235;-74
2023/09/18 06:47:01;;;;;;;6.88;3.55;;;;;;;-145.68;54.59;72040.94;10417520;28;20239;-73
2023/09/18 06:52:02;;;;;;;5.03;3.55;;;;;;;-145.68;54.04;72018.97;10432165;28;20199;-74
2023/09/18 06:57:03;;;;;;;3.70;2.80;;;;;;;-145.68;53.39;72044.94;10446749;28;20199;-73
2023/09/18 07:02:03;;;;;;;7.90;3.20;;;;;;;-145.68;53.38;72048.94;10448906;28;20223;-73
2023/09/18 07:07:04;;;;;;;3.53;3.00;;;;;;;-145.68;52.75;72018.97;10447003;28;20198;-74
2023/09/18 07:12:04;;;;;;;4.05;3.03;;;;;;;-145.68;51.79;71993.00;10451876;28;20192;-74
2023/09/18 07:17:05;;;;;;;2.80;2.60;;;;;;;-145.68;50.21;71961.03;10451786;28;20742;-73
2023/09/18 07:22:05;;;;;;;3.33;2.42;;;;;;;-145.68;49.74;71949.03;10450854;28;20691;-73
2023/09/18 07:27:06;;;;;;;2.95;2.58;;;;;;;-145.68;49.32;71933.03;10449733;28;20221;-74
2023/09/18 07:32:06;;;;;;;2.78;2.50;;;;;;;-145.68;48.45;71933.03;10431757;28;20192;-73
2023/09/18 07:37:07;;;;;;;2.65;2.28;;;;;;;-145.68;48.50;71917.06;10432447;28;20196;-73
2023/09/18 07:42:07;;;;;;;5.75;2.92;;;;;;;-145.68;48.19;71915.06;10450071;28;20216;-73
2023/09/18 07:47:07;;;;;;;4.53;2.70;;;;;;;-145.68;47.54;71879.09;10447401;28;20769;-74
2023/09/18 07:52:08;;;;;;;3.05;2.72;;;;;;;-145.68;47.47;71879.09;10429795;28;20566;-73
2023/09/18 07:57:09;;;;;;;2.55;2.35;;;;;;;-145.68;47.08;71867.13;10447801;28;20207;-74
2023/09/18 08:02:09;;;;;;;3.72;2.50;;;;;;;-145.68;45.55;71825.16;10449710;28;20220;-74
2023/09/18 08:07:10;;;;;;;3.85;2.80;;;;;;;-145.68;46.15;71861.13;10448162;28;20192;-74
2023/09/18 08:12:10;;;;;;;3.20;2.33;;;;;;;-145.68;45.24;71779.19;10430126;28;20632;-74
2023/09/18 08:17:12;;;;;;;3.25;2.70;;;;;;;-145.68;45.39;71745.25;10445713;28;20554;-74
2023/09/18 08:22:15;;;;;;;4.15;2.28;;;;;;;-145.68;44.23;71693.28;10448271;28;20305;-75
2023/09/18 08:27:18;;;;;;;2.63;2.33;;;;;;;-145.68;43.56;71697.28;10447319;28;20203;-74
2023/09/18 08:32:18;;;;;;;4.57;2.47;;;;;;;-145.68;44.73;71801.19;10444777;28;20194;-74
2023/09/18 08:37:18;;;;;;;2.85;2.65;;;;;;;-145.68;45.08;71783.19;10446442;28;20206;-75
2023/09/18 08:42:20;;;;;;;3.80;2.53;;;;;;;-145.68;44.66;71749.22;10448504;28;20196;-75
2023/09/18 08:47:21;;;;;;;2.85;2.50;;;;;;;-145.68;44.38;71721.25;10445121;28;20244;-74
2023/09/18 08:52:22;;;;;;;4.93;2.55;;;;;;;-145.68;43.95;71747.25;10430107;28;20245;-74
2023/09/18 08:57:24;;;;;;;2.70;2.50;;;;;;;-145.68;43.55;71699.28;10427694;28;20204;-75
2023/09/18 09:02:24;;;;;;;4.25;2.80;;;;;;;-145.68;43.50;71685.31;10422777;28;20234;-74
2023/09/18 09:07:26;;;;;;;4.82;2.60;;;;;;;-145.68;43.19;71617.38;10446773;28;20198;-74
2023/09/18 09:12:49;;;;;;;3.20;2.90;;;;;;;-145.68;42.70;71603.38;10429432;28;20215;-75
2023/09/18 09:17:51;;;;;;;2.88;2.53;;;;;;;-145.68;42.88;71577.41;10446289;28;20537;-75
2023/09/18 09:22:53;;;;;;;2.58;2.38;;;;;;;-145.68;42.30;71569.44;10429297;28;20195;-74
2023/09/18 09:27:54;;;;;;;2.72;2.13;;;;;;;-145.68;42.33;71529.47;10412719;28;20294;-75
2023/09/18 09:32:56;;;;;;;2.90;2.45;;;;;;;-145.68;42.42;71553.44;10428704;28;20196;-75
2023/09/18 09:38:00;;;;;;;2.97;2.75;;;;;;;-145.68;42.55;71533.47;10446743;28;20642;-74
2023/09/18 09:43:02;;;;;;;2.75;2.55;;;;;;;-145.68;42.29;71519.47;10446087;28;20191;-74
2023/09/18 09:48:05;;;;;;;5.18;2.85;;;;;;;-145.68;43.00;71565.44;10428386;28;20234;-75
2023/09/18 09:53:05;;;;;;;2.88;2.58;;;;;;;-145.68;43.37;71631.34;10446634;28;20192;-74
2023/09/18 09:58:07;;;;;;;4.35;2.78;;;;;;;-145.68;44.37;71735.25;10428170;28;20219;-74
2023/09/18 10:03:08;;;;;;;5.03;3.20;;;;;;;-145.68;44.60;71665.31;10446149;28;20192;-75
2023/09/18 10:08:12;;;;;;;4.95;3.33;;;;;;;-145.68;46.03;71749.22;10446719;28;20196;-74
2023/09/18 10:13:16;;;;;;;4.78;4.05;;;;;;;-145.68;47.24;71773.22;10445576;28;20193;-74
2023/09/18 10:18:27;;;;;;;5.35;3.55;;;;;;;-145.68;46.54;71687.31;10442657;28;20254;-75
2023/09/18 10:23:39;;;;;;;4.53;3.60;;;;;;;-145.68;46.13;71705.28;10428144;28;20184;-74
2023/09/18 10:28:39;;;;;;;5.00;3.72;;;;;;;-145.68;45.45;71587.41;10445804;28;20611;-74
2023/09/18 10:33:40;;;;;;;5.55;4.07;;;;;;;-145.68;43.73;71473.53;10435609;28;20732;-75
2023/09/18 10:38:41;;;;;;;6.43;4.10;;;;;;;-145.68;43.52;71445.56;10453280;28;20207;-75
2023/09/18 10:43:41;;;;;;;4.72;4.07;;;;;;;-145.68;45.13;71607.38;10451632;28;20227;-75
2023/09/18 10:48:43;;;;;;;5.18;4.30;;;;;;;-145.68;45.98;71663.31;10434950;28;20808;-75
2023/09/18 10:53:43;;;;;;;5.35;4.85;;;;;;;-145.68;47.12;71715.28;10456169;28;20192;-74
2023/09/18 10:58:45;;;;;;;5.53;4.95;;;;;;;-145.68;48.42;71781.19;10452004;28;20675;-74
2023/09/18 11:03:45;;;;;;;4.75;4.35;;;;;;;-145.68;49.20;71809.16;10448035;28;20541;-75
2023/09/18 11:08:48;;;;;;;6.53;4.72;;;;;;;-145.68;49.28;71805.19;10451813;28;20184;-74
2023/09/18 11:13:55;;;;;;;8.88;4.68;;;;;;;-145.68;49.32;71821.16;10451760;28;20192;-74
2023/09/18 11:18:58;;;;;;;7.60;4.15;;;;;;;-145.68;49.07;71807.19;10450960;28;20251;-74
2023/09/18 11:24:26;;;;;;;4.78;4.00;;;;;;;-145.68;47.44;71699.28;10451207;28;20235;-75
2023/09/18 11:29:28;;;;;;;6.75;4.13;;;;;;;-145.68;44.35;71551.44;10447950;28;20218;-75
2023/09/18 11:34:36;;;;;;;6.65;4.40;;;;;;;-145.68;44.98;71641.34;10450933;28;20196;-74
2023/09/18 11:39:38;;;;;;;5.70;3.97;;;;;;;-145.68;44.43;71551.44;10448601;28;20212;-75
2023/09/18 11:44:46;;;;;;;8.27;3.20;;;;;;;-145.68;44.27;71613.38;10449716;28;20192;-74
2023/09/18 11:49:52;;;;;;;4.97;3.15;;;;;;;-145.68;43.19;71515.47;10449534;28;20266;-74
2023/09/18 11:54:56;;;;;;;4.72;3.67;;;;;;;-145.68;43.55;71493.50;10433161;28;20219;-75
2023/09/18 11:59:59;;;;;;;4.15;3.75;;;;;;;-145.68;42.73;71423.59;10450402;28;20231;-76
2023/09/18 12:05:05;;;;;;;5.13;3.97;;;;;;;-145.68;42.60;71395.63;10449723;28;20196;-75
2023/09/18 12:10:07;;;;;;;6.97;3.78;;;;;;;-145.68;41.63;71273.75;10448981;28;20191;-75
2023/09/18 12:15:10;;;;;;;5.53;3.20;;;;;;;-145.68;40.37;71213.81;10431185;28;20203;-75
2023/09/18 12:20:20;;;;;;;8.02;3.15;;;;;;;-145.68;39.96;71215.81;10448942;28;20204;-76
2023/09/18 12:25:22;;;;;;;9.48;3.50;;;;;;;-145.68;38.01;71089.97;10444970;28;20204;-75
2023/09/18 12:30:23;;;;;;;8.85;3.00;;;;;;;-145.68;37.68;71151.91;10447959;28;20199;-75
2023/09/18 12:35:25;;;;;;;16.85;3.50;;;;;;;-145.68;38.85;71225.81;10449084;28;20191;-75
2023/09/18 12:40:30;;;;;;;8.50;3.00;;;;;;;-145.68;36.61;71068.00;10430151;28;20215;-75
2023/09/18 12:45:30;;;;;;;8.95;3.20;;;;;;;-145.68;37.92;71161.88;10448425;28;20191;-75
2023/09/18 12:50:30;;;;;;;5.72;2.75;;;;;;;-145.68;39.42;71329.69;10429520;28;20239;-75
2023/09/18 12:55:31;;;;;;;10.82;3.15;;;;;;;-145.68;40.08;71321.69;10451024;28;20675;-74
2023/09/18 13:00:31;;;;;;;16.13;3.63;;;;;;;-145.68;41.84;71503.50;10428877;28;20643;-74
2023/09/18 13:05:35;;;;;;;13.57;3.58;;;;;;;-145.68;41.62;71497.50;10429824;28;20199;-75
2023/09/18 13:10:47;;;;;;;5.40;3.10;;;;;;;-145.68;41.18;71429.59;10428868;28;20187;-74
2023/09/18 13:15:48;;;;;;;7.95;3.40;;;;;;;-145.68;42.30;71445.56;10443907;28;20286;-75
2023/09/18 13:20:48;;;;;;;9.18;3.50;;;;;;;-145.68;42.35;71433.56;10446764;28;20238;-74
2023/09/18 13:25:48;;;;;;;7.72;3.22;;;;;;;-145.68;41.30;71413.59;10429406;28;20532;-75
2023/09/18 13:30:50;;;;;;;9.27;3.17;;;;;;;-145.68;42.45;71441.56;10432845;28;20194;-75
2023/09/18 13:35:50;;;;;;;7.45;3.20;;;;;;;-145.68;43.74;71549.44;10429205;28;20344;-74
2023/09/18 13:40:51;;;;;;;10.57;3.25;;;;;;;-145.68;43.75;71489.50;10446373;28;20242;-75
2023/09/18 13:45:54;;;;;;;5.25;3.17;;;;;;;-145.68;44.25;71573.41;10423687;28;20211;-74
2023/09/18 13:50:55;;;;;;;13.27;3.92;;;;;;;-145.68;44.48;71605.38;10427509;28;20232;-74
2023/09/18 13:55:56;;;;;;;7.78;3.10;;;;;;;-145.68;43.48;71581.41;10428820;28;20195;-75
2023/09/18 14:00:57;;;;;;;6.10;2.40;;;;;;;-145.68;41.81;71515.47;10445109;28;20223;-75
2023/09/18 14:05:57;;;;;;;12.32;2.40;;;;;;;-145.68;41.97;71545.44;10433787;28;20195;-74
2023/09/18 14:10:57;;;;;;;12.10;2.50;;;;;;;-145.68;41.17;71493.50;10454353;28;20246;-75
2023/09/18 14:15:58;;;;;;;6.28;2.40;;;;;;;-145.68;40.55;71481.53;10453731;28;20198;-75
2023/09/18 14:20:59;;;;;;;6.03;1.90;;;;;;;-145.68;41.29;71505.50;10457445;28;20219;-74
2023/09/18 14:26:00;;;;;;;7.18;2.22;;;;;;;-145.68;40.38;71363.66;10453806;28;20196;-74
2023/09/18 14:31:03;;;;;;;9.48;2.50;;;;;;;-145.68;38.96;71227.81;10453530;28;20246;-75
2023/09/18 14:36:04;;;;;;;8.25;2.35;;;;;;;-145.68;37.55;71099.97;10453503;28;20277;-75
2023/09/18 14:41:06;;;;;;;8.80;2.42;;;;;;;-145.68;40.42;71399.63;10452377;28;21032;-75
2023/09/18 14:46:07;;;;;;;13.10;2.80;;;;;;;-145.68;41.97;71491.50;10453467;28;20192;-75
2023/09/18 14:51:07;;;;;;;9.87;2.60;;;;;;;-145.68;42.11;71485.53;10434086;28;20700;-74
2023/09/18 14:56:08;;;;;;;11.50;2.63;;;;;;;-145.68;41.97;71439.56;10418420;28;21015;-75
2023/09/18 15:01:14;;;;;;;12.70;3.03;;;;;;;-145.68;43.33;71479.53;10451674;28;20539;-75
2023/09/18 15:06:15;;;;;;;13.50;2.88;;;;;;;-145.68;42.73;71485.53;10433484;28;20535;-75
2023/09/18 15:11:19;;;;;;;10.15;2.72;;;;;;;-145.68;44.57;71671.31;10433750;28;20683;-75
2023/09/18 15:16:19;;;;;;;9.68;1.95;;;;;;;-145.68;45.86;71767.22;10429608;28;20664;-74
2023/09/18 15:21:20;;;;;;;10.40;1.60;;;;;;;-145.68;46.51;71829.16;10451138;28;20285;-74
2023/09/18 15:26:20;;;;;;;7.15;1.83;;;;;;;-145.68;46.61;71845.13;10451773;28;20230;-75
2023/09/18 15:31:21;;;;;;;5.78;2.03;;;;;;;-145.68;47.49;71965.00;10432989;28;20346;-74
2023/09/18 15:36:23;;;;;;;9.43;1.77;;;;;;;-145.68;48.47;72012.97;10451297;28;20188;-74
2023/09/18 15:41:23;;;;;;;4.90;1.60;;;;;;;-145.68;47.82;71957.03;10450269;28;20231;-74
2023/09/18 15:46:23;;;;;;;2.88;1.55;;;;;;;-145.68;47.77;72016.97;10450383;28;20195;-74
2023/09/18 15:51:24;;;;;;;7.28;1.70;;;;;;;-145.68;49.56;72096.88;10450081;28;20290;-74
2023/09/18 15:56:24;;;;;;;3.85;1.52;;;;;;;-145.68;50.90;72176.81;10449985;28;20192;-74
2023/09/18 16:01:24;;;;;;;7.78;1.58;;;;;;;-145.68;51.15;72164.81;10449978;28;20291;-74
2023/09/18 16:06:25;;;;;;;5.05;1.35;;;;;;;-145.68;52.57;72240.75;10449469;28;20184;-74
2023/09/18 16:11:26;;;;;;;4.53;1.73;;;;;;;-145.68;53.94;72224.78;10449774;28;20663;-74
2023/09/18 16:16:27;;;;;;;2.97;1.65;;;;;;;-145.68;56.32;72294.72;10449106;28;20203;-74
2023/09/18 16:21:27;;;;;;;5.90;2.10;;;;;;;-145.68;63.81;72420.59;10448989;28;20236;-75
2023/09/18 16:26:27;;;;;;;5.43;2.40;;;;;;;-145.68;78.75;72508.50;10414540;28;20719;-75
2023/09/18 16:31:29;;;;;;;11.93;3.30;;;;;;;-145.68;93.27;72556.47;10447912;28;20215;-74
2023/09/18 16:36:29;;;;;;;6.13;2.30;;;;;;;-145.68;100.00;72590.44;10431280;28;20282;-74
2023/09/18 16:41:30;;;;;;;4.43;1.80;;;;;;;-145.68;100.00;72630.41;10413710;28;20224;-74
2023/09/18 16:46:30;;;;;;;7.30;2.30;;;;;;;-145.68;100.00;72674.38;10448076;28;20194;-75
2023/09/18 16:51:31;;;;;;;8.93;2.50;;;;;;;-145.68;100.00;72708.34;10429983;28;20721;-74
2023/09/18 16:56:31;;;;;;;8.80;2.60;;;;;;;-145.68;100.00;72748.31;10448384;28;20566;-74
2023/09/18 17:01:32;;;;;;;4.47;2.03;;;;;;;-145.68;100.00;72758.31;10447303;28;20222;-74
2023/09/18 17:06:34;;;;;;;6.47;2.58;;;;;;;-145.68;100.00;72796.28;10447728;28;20710;-74
2023/09/18 17:11:35;;;;;;;7.28;2.72;;;;;;;-145.68;100.00;72794.28;10413586;28;20193;-74
2023/09/18 17:16:36;;;;;;;3.88;2.33;;;;;;;-145.68;100.00;72800.28;10447139;28;20191;-74
2023/09/18 17:21:36;;;;;;;5.85;2.72;;;;;;;-145.68;100.00;72796.28;10446958;28;20351;-74
2023/09/18 17:26:36;;;;;;;6.32;2.40;;;;;;;-145.68;100.00;72784.28;10447644;28;20207;-75
2023/09/18 17:31:37;;;;;;;6.78;2.80;;;;;;;-145.68;100.00;72772.31;10428690;28;20195;-75
2023/09/18 17:36:37;;;;;;;9.63;2.85;;;;;;;-145.68;100.00;72784.28;10447297;28;20781;-75
2023/09/18 17:41:38;;;;;;;7.60;2.92;;;;;;;-145.68;100.00;72804.28;10453716;28;20215;-74
2023/09/18 17:46:39;;;;;;;6.72;3.08;;;;;;;-145.68;100.00;72818.25;10454784;28;20200;-75
2023/09/18 17:51:39;;;;;;;7.60;2.67;;;;;;;-145.68;100.00;72812.28;10455274;28;20233;-75
2023/09/18 17:56:40;;;;;;;7.18;2.67;;;;;;;-145.68;100.00;72814.28;10454715;28;20191;-75
2023/09/18 18:01:40;;;;;;;8.05;3.17;;;;;;;-145.68;100.00;72812.28;10454333;28;20211;-75
2023/09/18 18:06:43;;;;;;;6.60;2.22;;;;;;;-145.68;100.00;72822.25;10455150;28;20192;-75
2023/09/18 18:11:44;;;;;;;5.20;2.33;;;;;;;-145.68;100.00;72824.25;10453562;28;20245;-75
2023/09/18 18:16:44;;;;;;;5.85;1.98;;;;;;;-145.68;100.00;72830.25;10454262;28;20613;-76
2023/09/18 18:21:45;;;;;;;4.88;2.00;;;;;;;-145.68;100.00;72832.25;10453451;28;20208;-76
2023/09/18 18:26:45;;;;;;;4.30;1.98;;;;;;;-145.68;100.00;72858.22;10453413;28;20697;-77
2023/09/18 18:31:46;;;;;;;5.80;2.00;;;;;;;-145.68;100.00;72870.22;10453573;28;20191;-76
2023/09/18 18:36:48;;;;;;;5.07;1.80;;;;;;;-145.68;100.00;72888.22;10453526;28;20234;-76
2023/09/18 18:41:48;;;;;;;5.00;2.05;;;;;;;-145.68;100.00;72904.19;10452840;28;20273;-77
2023/09/18 18:46:49;;;;;;;5.43;2.25;;;;;;;-145.68;100.00;72932.19;10418910;28;20249;-77
2023/09/18 18:51:49;;;;;;;3.92;2.13;;;;;;;-145.68;100.00;72938.16;10451291;28;20192;-76
2023/09/18 18:56:49;;;;;;;6.07;1.65;;;;;;;-145.68;100.00;72952.16;10434321;28;20649;-74
2023/09/18 19:01:50;;;;;;;5.70;2.38;;;;;;;-145.68;100.00;72956.16;10450922;28;20211;-75
2023/09/18 19:06:50;;;;;;;3.13;2.00;;;;;;;-145.68;100.00;72952.16;10451633;28;20196;-74
2023/09/18 19:11:50;;;;;;;4.85;1.67;;;;;;;-145.68;100.00;72944.16;10450501;28;20191;-74
2023/09/18 19:16:51;;;;;;;2.83;1.75;;;;;;;-145.68;100.00;72958.16;10433470;28;20195;-74
2023/09/18 19:21:51;;;;;;;5.18;1.67;;;;;;;-145.68;100.00;72948.16;10451734;28;20270;-74
2023/09/18 19:26:52;;;;;;;2.80;1.30;;;;;;;-145.68;100.00;72932.19;10452692;28;20203;-74
2023/09/18 19:31:52;;;;;;;7.38;1.52;;;;;;;-145.68;100.00;72954.16;10450230;28;20188;-75
2023/09/18 19:36:54;;;;;;;2.63;1.70;;;;;;;-145.68;100.00;72960.16;10431986;28;20203;-74
2023/09/18 19:41:57;;;;;;;5.78;1.50;;;;;;;-145.68;100.00;72968.16;10449423;28;20274;-74
2023/09/18 19:46:58;;;;;;;2.15;1.55;;;;;;;-145.68;100.00;72964.16;10449262;28;20788;-74
2023/09/18 19:51:59;;;;;;;3.55;1.17;;;;;;;-145.68;100.00;72946.16;10430675;28;20231;-74
2023/09/18 19:56:59;;;;;;;2.15;1.10;;;;;;;-145.68;100.00;72952.16;10449609;28;20204;-74
2023/09/18 20:02:00;;;;;;;3.38;1.30;;;;;;;-145.68;100.00;72948.16;10424942;28;20228;-74
2023/09/18 20:07:00;;;;;;;6.30;1.85;;;;;;;-145.68;100.00;72962.16;10430962;28;20240;-75
2023/09/18 20:12:01;;;;;;;2.85;1.35;;;;;;;-145.68;100.00;72952.16;10448189;28;20195;-75
2023/09/18 20:17:02;;;;;;;1.90;1.23;;;;;;;-145.68;100.00;72942.16;10447385;28;20253;-74
2023/09/18 20:22:02;;;;;;;1.83;1.48;;;;;;;-145.68;100.00;72934.19;10429983;28;20251;-74
2023/09/18 20:27:03;;;;;;;3.67;1.33;;;;;;;-145.68;100.00;72930.19;10448103;28;20845;-75
2023/09/18 20:32:05;;;;;;;2.45;1.20;;;;;;;-145.68;100.00;72930.19;10448009;28;20215;-74
2023/09/18 20:37:06;;;;;;;2.97;1.10;;;;;;;-145.68;100.00;72950.16;10447412;28;20196;-74
2023/09/18 20:42:07;;;;;;;1.13;0.90;;;;;;;-145.68;100.00;72948.16;10447105;28;20585;-74
2023/09/18 20:47:07;;;;;;;1.65;1.23;;;;;;;-145.68;100.00;72952.16;10446589;28;20232;-74
2023/09/18 20:52:08;;;;;;;2.08;1.40;;;;;;;-145.68;100.00;72944.16;10446289;28;20210;-74
2023/09/18 20:57:09;;;;;;;2.70;0.88;;;;;;;-145.68;100.00;72952.16;10447048;28;20645;-75
2023/09/18 21:02:10;;;;;;;3.25;1.02;;;;;;;-145.68;100.00;72924.19;10446400;28;20230;-74
2023/09/18 21:07:11;;;;;;;2.95;0.90;;;;;;;-145.68;100.00;72914.19;10446690;28;20188;-74
2023/09/18 21:12:11;;;;;;;3.10;1.10;;;;;;;-145.68;100.00;72932.19;10445972;28;20601;-74
2023/09/18 21:17:11;;;;;;;2.75;1.40;;;;;;;-145.68;100.00;72950.16;10446004;28;20195;-74
2023/09/18 21:22:12;;;;;;;4.60;1.20;;;;;;;-145.68;100.00;72968.16;10445856;28;20226;-74
2023/09/18 21:27:13;;;;;;;1.05;0.70;;;;;;;-145.68;100.00;72960.16;10446371;28;20198;-74
2023/09/18 21:32:13;;;;;;;6.07;1.45;;;;;;;-145.68;100.00;72944.16;10445919;28;20295;-75
2023/09/18 21:37:13;;;;;;;3.40;1.20;;;;;;;-145.68;100.00;72934.19;10445957;28;20609;-74
2023/09/18 21:42:14;;;;;;;5.05;1.33;;;;;;;-145.68;100.00;72948.16;10427677;28;20234;-74
2023/09/18 21:47:14;;;;;;;5.45;1.30;;;;;;;-145.68;100.00;72948.16;10444799;28;20236;-74
2023/09/18 21:52:15;;;;;;;2.65;1.20;;;;;;;-145.68;100.00;72952.16;10445007;28;20652;-74
2023/09/18 21:57:15;;;;;;;2.58;1.23;;;;;;;-145.68;100.00;72960.16;10446048;28;20544;-74
2023/09/18 22:02:16;;;;;;;3.55;1.10;;;;;;;-145.68;100.00;72980.13;10445143;28;20220;-74
2023/09/18 22:07:16;;;;;;;1.70;1.00;;;;;;;-145.68;100.00;72992.13;10445466;28;20188;-74
2023/09/18 22:12:18;;;;;;;1.83;1.40;;;;;;;-145.68;100.00;72996.13;10444755;28;20188;-74
2023/09/18 22:17:18;;;;;;;4.35;1.38;;;;;;;-145.68;100.00;73016.13;10427477;28;21012;-74
2023/09/18 22:22:19;;;;;;;1.70;1.00;;;;;;;-145.68;100.00;73000.13;10444598;28;20230;-75
2023/09/18 22:27:19;;;;;;;4.47;1.20;;;;;;;-145.68;100.00;73006.13;10451356;28;20188;-74
2023/09/18 22:32:23;;;;;;;3.35;1.30;;;;;;;-145.68;100.00;73006.13;10451765;28;20192;-74
2023/09/18 22:37:23;;;;;;;1.80;1.27;;;;;;;-145.68;100.00;73016.13;10452591;28;20195;-74
2023/09/18 22:42:24;;;;;;;1.48;1.00;;;;;;;-145.68;100.00;73008.13;10452180;28;20651;-74